sensor_id;sensor_type;location;lat;lon;timestamp;P1;durP1;ratioP1;P2;durP2;ratioP2
75548;SDS011;64133;56.002;37.208;2024-03-17T00:03:52;4.62;;;2.40;;
75548;SDS011;64133;56.002;37.208;2024-03-17T00:08:57;6.37;;;2.22;;
75548;SDS011;64133;56.002;37.208;2024-03-17T00:14:02;10.65;;;2.05;;
75548;SDS011;64133;56.002;37.208;2024-03-17T00:19:08;11.60;;;2.22;;
75548;SDS011;64133;56.002;37.208;2024-03-17T00:24:13;10.72;;;2.42;;
75548;SDS011;64133;56.002;37.208;2024-03-17T00:29:18;7.10;;;2.52;;
75548;SDS011;64133;56.002;37.208;2024-03-17T00:39:37;9.43;;;1.65;;
75548;SDS011;64133;56.002;37.208;2024-03-17T00:44:42;4.83;;;2.05;;
75548;SDS011;64133;56.002;37.208;2024-03-17T00:49:47;3.35;;;1.50;;
75548;SDS011;64133;56.002;37.208;2024-03-17T00:54:53;7.05;;;2.60;;
75548;SDS011;64133;56.002;37.208;2024-03-17T00:59:58;13.70;;;1.90;;
75548;SDS011;64133;56.002;37.208;2024-03-17T01:05:03;6.87;;;1.62;;
75548;SDS011;64133;56.002;37.208;2024-03-17T01:10:09;22.98;;;1.77;;
75548;SDS011;64133;56.002;37.208;2024-03-17T01:15:14;4.08;;;1.75;;
75548;SDS011;64133;56.002;37.208;2024-03-17T01:20:19;3.17;;;1.45;;
75548;SDS011;64133;56.002;37.208;2024-03-17T01:25:24;8.55;;;1.47;;
75548;SDS011;64133;56.002;37.208;2024-03-17T01:30:29;4.15;;;1.85;;
75548;SDS011;64133;56.002;37.208;2024-03-17T01:35:34;3.47;;;2.42;;
75548;SDS011;64133;56.002;37.208;2024-03-17T01:40:39;3.87;;;1.75;;
75548;SDS011;64133;56.002;37.208;2024-03-17T01:45:44;4.03;;;1.90;;
75548;SDS011;64133;56.002;37.208;2024-03-17T01:50:50;12.98;;;2.15;;
75548;SDS011;64133;56.002;37.208;2024-03-17T01:55:54;1.57;;;1.20;;
75548;SDS011;64133;56.002;37.208;2024-03-17T02:00:59;9.28;;;1.00;;
75548;SDS011;64133;56.002;37.208;2024-03-17T02:06:04;10.20;;;1.65;;
75548;SDS011;64133;56.002;37.208;2024-03-17T02:11:09;5.10;;;1.62;;
75548;SDS011;64133;56.002;37.208;2024-03-17T02:16:14;12.65;;;1.40;;
75548;SDS011;64133;56.002;37.208;2024-03-17T02:21:20;2.25;;;1.20;;
75548;SDS011;64133;56.002;37.208;2024-03-17T02:26:26;5.87;;;1.77;;
75548;SDS011;64133;56.002;37.208;2024-03-17T02:31:31;3.77;;;1.70;;
75548;SDS011;64133;56.002;37.208;2024-03-17T02:36:36;8.83;;;1.07;;
75548;SDS011;64133;56.002;37.208;2024-03-17T02:41:43;10.00;;;1.55;;
75548;SDS011;64133;56.002;37.208;2024-03-17T02:46:47;2.77;;;1.00;;
75548;SDS011;64133;56.002;37.208;2024-03-17T02:51:52;11.40;;;2.35;;
75548;SDS011;64133;56.002;37.208;2024-03-17T02:56:57;10.18;;;1.90;;
75548;SDS011;64133;56.002;37.208;2024-03-17T03:02:02;1.67;;;1.25;;
75548;SDS011;64133;56.002;37.208;2024-03-17T03:07:08;1.12;;;0.72;;
75548;SDS011;64133;56.002;37.208;2024-03-17T03:12:13;1.87;;;0.70;;
75548;SDS011;64133;56.002;37.208;2024-03-17T03:17:17;4.62;;;1.32;;
75548;SDS011;64133;56.002;37.208;2024-03-17T03:22:22;3.00;;;1.60;;
75548;SDS011;64133;56.002;37.208;2024-03-17T03:27:27;3.35;;;1.37;;
75548;SDS011;64133;56.002;37.208;2024-03-17T03:32:32;5.47;;;2.00;;
75548;SDS011;64133;56.002;37.208;2024-03-17T03:37:37;11.63;;;1.85;;
75548;SDS011;64133;56.002;37.208;2024-03-17T03:42:45;2.50;;;2.05;;
75548;SDS011;64133;56.002;37.208;2024-03-17T03:47:50;3.60;;;1.37;;
75548;SDS011;64133;56.002;37.208;2024-03-17T03:52:55;5.05;;;2.52;;
75548;SDS011;64133;56.002;37.208;2024-03-17T03:58:00;8.78;;;1.75;;
75548;SDS011;64133;56.002;37.208;2024-03-17T04:03:05;3.10;;;1.98;;
75548;SDS011;64133;56.002;37.208;2024-03-17T04:08:10;2.02;;;1.57;;
75548;SDS011;64133;56.002;37.208;2024-03-17T04:13:15;4.70;;;1.40;;
75548;SDS011;64133;56.002;37.208;2024-03-17T04:18:20;3.45;;;1.72;;
75548;SDS011;64133;56.002;37.208;2024-03-17T04:23:24;8.73;;;2.40;;
75548;SDS011;64133;56.002;37.208;2024-03-17T04:28:30;10.23;;;2.12;;
75548;SDS011;64133;56.002;37.208;2024-03-17T04:33:35;0.45;;;0.20;;
75548;SDS011;64133;56.002;37.208;2024-03-17T04:38:39;15.68;;;1.25;;
75548;SDS011;64133;56.002;37.208;2024-03-17T04:43:44;7.42;;;1.62;;
75548;SDS011;64133;56.002;37.208;2024-03-17T04:48:49;8.98;;;2.15;;
75548;SDS011;64133;56.002;37.208;2024-03-17T04:53:54;2.37;;;1.27;;
75548;SDS011;64133;56.002;37.208;2024-03-17T04:58:59;3.62;;;1.05;;
75548;SDS011;64133;56.002;37.208;2024-03-17T05:04:04;4.25;;;1.87;;
75548;SDS011;64133;56.002;37.208;2024-03-17T05:09:09;4.92;;;1.20;;
75548;SDS011;64133;56.002;37.208;2024-03-17T05:14:14;3.95;;;1.80;;
75548;SDS011;64133;56.002;37.208;2024-03-17T05:19:19;4.35;;;1.82;;
75548;SDS011;64133;56.002;37.208;2024-03-17T05:24:24;3.80;;;2.12;;
75548;SDS011;64133;56.002;37.208;2024-03-17T05:29:29;3.83;;;1.82;;
75548;SDS011;64133;56.002;37.208;2024-03-17T05:34:34;2.40;;;1.22;;
75548;SDS011;64133;56.002;37.208;2024-03-17T05:39:39;10.95;;;1.40;;
75548;SDS011;64133;56.002;37.208;2024-03-17T05:44:44;6.83;;;2.77;;
75548;SDS011;64133;56.002;37.208;2024-03-17T05:49:53;11.15;;;2.12;;
75548;SDS011;64133;56.002;37.208;2024-03-17T05:54:58;3.95;;;1.62;;
75548;SDS011;64133;56.002;37.208;2024-03-17T06:00:03;8.70;;;1.35;;
75548;SDS011;64133;56.002;37.208;2024-03-17T06:05:09;5.90;;;2.42;;
75548;SDS011;64133;56.002;37.208;2024-03-17T06:10:14;9.00;;;2.40;;
75548;SDS011;64133;56.002;37.208;2024-03-17T06:15:19;3.25;;;1.82;;
75548;SDS011;64133;56.002;37.208;2024-03-17T06:20:26;14.73;;;3.70;;
75548;SDS011;64133;56.002;37.208;2024-03-17T06:25:31;6.75;;;1.77;;
75548;SDS011;64133;56.002;37.208;2024-03-17T06:30:36;6.83;;;2.47;;
75548;SDS011;64133;56.002;37.208;2024-03-17T06:35:41;5.97;;;2.75;;
75548;SDS011;64133;56.002;37.208;2024-03-17T06:40:49;4.35;;;2.10;;
75548;SDS011;64133;56.002;37.208;2024-03-17T06:45:57;18.82;;;4.33;;
75548;SDS011;64133;56.002;37.208;2024-03-17T06:51:02;2.52;;;1.50;;
75548;SDS011;64133;56.002;37.208;2024-03-17T06:56:07;7.92;;;2.15;;
75548;SDS011;64133;56.002;37.208;2024-03-17T07:01:12;15.55;;;3.00;;
75548;SDS011;64133;56.002;37.208;2024-03-17T07:06:17;10.68;;;3.67;;
75548;SDS011;64133;56.002;37.208;2024-03-17T07:11:22;8.13;;;2.92;;
75548;SDS011;64133;56.002;37.208;2024-03-17T07:16:27;12.05;;;3.83;;
75548;SDS011;64133;56.002;37.208;2024-03-17T07:21:32;4.87;;;2.70;;
75548;SDS011;64133;56.002;37.208;2024-03-17T07:26:38;6.05;;;3.05;;
75548;SDS011;64133;56.002;37.208;2024-03-17T07:31:42;3.85;;;2.52;;
75548;SDS011;64133;56.002;37.208;2024-03-17T07:36:47;6.72;;;3.27;;
75548;SDS011;64133;56.002;37.208;2024-03-17T07:41:55;11.03;;;3.20;;
75548;SDS011;64133;56.002;37.208;2024-03-17T07:47:00;12.55;;;2.90;;
75548;SDS011;64133;56.002;37.208;2024-03-17T07:52:06;11.08;;;3.00;;
75548;SDS011;64133;56.002;37.208;2024-03-17T07:57:11;10.82;;;2.65;;
75548;SDS011;64133;56.002;37.208;2024-03-17T08:02:16;5.20;;;2.83;;
75548;SDS011;64133;56.002;37.208;2024-03-17T08:07:21;10.45;;;3.35;;
75548;SDS011;64133;56.002;37.208;2024-03-17T08:12:26;12.80;;;3.70;;
75548;SDS011;64133;56.002;37.208;2024-03-17T08:17:33;8.05;;;3.15;;
75548;SDS011;64133;56.002;37.208;2024-03-17T08:22:38;8.50;;;3.47;;
75548;SDS011;64133;56.002;37.208;2024-03-17T08:27:42;16.37;;;3.05;;
75548;SDS011;64133;56.002;37.208;2024-03-17T08:32:47;14.75;;;3.55;;
75548;SDS011;64133;56.002;37.208;2024-03-17T08:37:52;8.48;;;3.58;;
75548;SDS011;64133;56.002;37.208;2024-03-17T08:42:57;13.83;;;3.72;;
75548;SDS011;64133;56.002;37.208;2024-03-17T08:48:03;10.48;;;3.50;;
75548;SDS011;64133;56.002;37.208;2024-03-17T08:53:08;5.58;;;2.35;;
75548;SDS011;64133;56.002;37.208;2024-03-17T08:58:13;14.83;;;3.87;;
75548;SDS011;64133;56.002;37.208;2024-03-17T09:03:18;7.62;;;2.80;;
75548;SDS011;64133;56.002;37.208;2024-03-17T09:08:23;4.67;;;2.42;;
75548;SDS011;64133;56.002;37.208;2024-03-17T09:13:28;12.25;;;3.72;;
75548;SDS011;64133;56.002;37.208;2024-03-17T09:18:33;9.80;;;3.50;;
75548;SDS011;64133;56.002;37.208;2024-03-17T09:23:41;13.32;;;4.28;;
75548;SDS011;64133;56.002;37.208;2024-03-17T09:28:46;13.72;;;3.58;;
75548;SDS011;64133;56.002;37.208;2024-03-17T09:33:51;6.65;;;2.90;;
75548;SDS011;64133;56.002;37.208;2024-03-17T09:38:56;12.05;;;4.10;;
75548;SDS011;64133;56.002;37.208;2024-03-17T09:44:01;5.50;;;2.35;;
75548;SDS011;64133;56.002;37.208;2024-03-17T09:49:07;10.93;;;3.12;;
75548;SDS011;64133;56.002;37.208;2024-03-17T09:54:17;11.08;;;4.37;;
75548;SDS011;64133;56.002;37.208;2024-03-17T09:59:22;12.85;;;2.00;;
75548;SDS011;64133;56.002;37.208;2024-03-17T10:04:32;11.33;;;3.45;;
75548;SDS011;64133;56.002;37.208;2024-03-17T10:09:37;12.58;;;3.90;;
75548;SDS011;64133;56.002;37.208;2024-03-17T10:14:42;9.55;;;3.60;;
75548;SDS011;64133;56.002;37.208;2024-03-17T10:19:47;7.40;;;3.70;;
75548;SDS011;64133;56.002;37.208;2024-03-17T10:24:59;7.60;;;3.20;;
75548;SDS011;64133;56.002;37.208;2024-03-17T10:30:06;8.05;;;3.52;;
75548;SDS011;64133;56.002;37.208;2024-03-17T10:35:25;10.05;;;2.83;;
75548;SDS011;64133;56.002;37.208;2024-03-17T10:40:33;10.93;;;3.37;;
75548;SDS011;64133;56.002;37.208;2024-03-17T10:45:39;9.45;;;2.08;;
75548;SDS011;64133;56.002;37.208;2024-03-17T10:50:44;20.50;;;3.70;;
75548;SDS011;64133;56.002;37.208;2024-03-17T10:55:49;8.45;;;3.35;;
75548;SDS011;64133;56.002;37.208;2024-03-17T11:00:54;17.07;;;3.33;;
75548;SDS011;64133;56.002;37.208;2024-03-17T11:05:59;9.40;;;3.70;;
75548;SDS011;64133;56.002;37.208;2024-03-17T11:11:06;9.45;;;3.00;;
75548;SDS011;64133;56.002;37.208;2024-03-17T11:16:26;12.98;;;3.58;;
75548;SDS011;64133;56.002;37.208;2024-03-17T11:21:30;11.65;;;3.77;;
75548;SDS011;64133;56.002;37.208;2024-03-17T11:26:35;17.30;;;4.53;;
75548;SDS011;64133;56.002;37.208;2024-03-17T11:31:42;12.68;;;3.92;;
75548;SDS011;64133;56.002;37.208;2024-03-17T11:36:48;8.88;;;2.37;;
75548;SDS011;64133;56.002;37.208;2024-03-17T11:41:53;9.85;;;3.92;;
75548;SDS011;64133;56.002;37.208;2024-03-17T11:46:58;8.50;;;4.25;;
75548;SDS011;64133;56.002;37.208;2024-03-17T11:52:04;12.95;;;5.70;;
75548;SDS011;64133;56.002;37.208;2024-03-17T11:57:09;9.53;;;3.02;;
75548;SDS011;64133;56.002;37.208;2024-03-17T12:02:16;12.47;;;3.47;;
75548;SDS011;64133;56.002;37.208;2024-03-17T12:07:20;13.53;;;3.92;;
75548;SDS011;64133;56.002;37.208;2024-03-17T12:12:25;13.62;;;4.03;;
75548;SDS011;64133;56.002;37.208;2024-03-17T12:17:34;6.60;;;2.75;;
75548;SDS011;64133;56.002;37.208;2024-03-17T12:22:39;10.38;;;2.55;;
75548;SDS011;64133;56.002;37.208;2024-03-17T12:27:45;10.03;;;3.77;;
75548;SDS011;64133;56.002;37.208;2024-03-17T12:32:50;15.25;;;3.42;;
75548;SDS011;64133;56.002;37.208;2024-03-17T12:37:55;7.08;;;3.70;;
75548;SDS011;64133;56.002;37.208;2024-03-17T12:43:00;10.72;;;4.60;;
75548;SDS011;64133;56.002;37.208;2024-03-17T12:48:10;20.55;;;3.75;;
75548;SDS011;64133;56.002;37.208;2024-03-17T12:53:16;11.20;;;3.25;;
75548;SDS011;64133;56.002;37.208;2024-03-17T12:58:21;6.55;;;2.47;;
75548;SDS011;64133;56.002;37.208;2024-03-17T13:08:48;19.02;;;4.53;;
75548;SDS011;64133;56.002;37.208;2024-03-17T13:13:56;11.35;;;3.77;;
75548;SDS011;64133;56.002;37.208;2024-03-17T13:19:01;13.05;;;4.12;;
75548;SDS011;64133;56.002;37.208;2024-03-17T13:24:07;11.57;;;3.10;;
75548;SDS011;64133;56.002;37.208;2024-03-17T13:29:12;8.48;;;2.90;;
75548;SDS011;64133;56.002;37.208;2024-03-17T13:34:17;6.80;;;3.15;;
75548;SDS011;64133;56.002;37.208;2024-03-17T13:39:22;26.55;;;3.85;;
75548;SDS011;64133;56.002;37.208;2024-03-17T13:44:27;6.78;;;3.25;;
75548;SDS011;64133;56.002;37.208;2024-03-17T13:49:32;11.45;;;3.37;;
75548;SDS011;64133;56.002;37.208;2024-03-17T13:54:37;9.45;;;4.72;;
75548;SDS011;64133;56.002;37.208;2024-03-17T13:59:42;8.63;;;3.25;;
75548;SDS011;64133;56.002;37.208;2024-03-17T14:04:48;11.53;;;3.40;;
75548;SDS011;64133;56.002;37.208;2024-03-17T14:09:53;22.37;;;4.30;;
75548;SDS011;64133;56.002;37.208;2024-03-17T14:14:58;15.20;;;2.83;;
75548;SDS011;64133;56.002;37.208;2024-03-17T14:20:05;11.12;;;3.00;;
75548;SDS011;64133;56.002;37.208;2024-03-17T14:25:14;10.38;;;3.60;;
75548;SDS011;64133;56.002;37.208;2024-03-17T14:30:19;13.78;;;4.53;;
75548;SDS011;64133;56.002;37.208;2024-03-17T14:35:24;5.00;;;2.80;;
75548;SDS011;64133;56.002;37.208;2024-03-17T14:40:30;10.10;;;3.67;;
75548;SDS011;64133;56.002;37.208;2024-03-17T14:45:35;15.48;;;3.52;;
75548;SDS011;64133;56.002;37.208;2024-03-17T14:50:40;12.40;;;3.33;;
75548;SDS011;64133;56.002;37.208;2024-03-17T14:55:45;29.67;;;5.00;;
75548;SDS011;64133;56.002;37.208;2024-03-17T15:00:50;13.70;;;2.92;;
75548;SDS011;64133;56.002;37.208;2024-03-17T15:05:55;14.78;;;4.35;;
75548;SDS011;64133;56.002;37.208;2024-03-17T15:11:00;10.32;;;3.00;;
75548;SDS011;64133;56.002;37.208;2024-03-17T15:16:05;13.38;;;4.20;;
75548;SDS011;64133;56.002;37.208;2024-03-17T15:21:10;20.37;;;3.75;;
75548;SDS011;64133;56.002;37.208;2024-03-17T15:26:18;9.85;;;3.87;;
75548;SDS011;64133;56.002;37.208;2024-03-17T15:31:23;8.83;;;4.60;;
75548;SDS011;64133;56.002;37.208;2024-03-17T15:36:28;13.50;;;3.75;;
75548;SDS011;64133;56.002;37.208;2024-03-17T15:41:33;19.60;;;4.85;;
75548;SDS011;64133;56.002;37.208;2024-03-17T15:46:38;12.23;;;3.05;;
75548;SDS011;64133;56.002;37.208;2024-03-17T15:51:43;18.20;;;4.47;;
75548;SDS011;64133;56.002;37.208;2024-03-17T15:56:48;19.48;;;4.20;;
75548;SDS011;64133;56.002;37.208;2024-03-17T16:01:53;19.85;;;4.22;;
75548;SDS011;64133;56.002;37.208;2024-03-17T16:06:58;7.97;;;2.65;;
75548;SDS011;64133;56.002;37.208;2024-03-17T16:12:03;11.78;;;3.33;;
75548;SDS011;64133;56.002;37.208;2024-03-17T16:17:08;11.73;;;4.25;;
75548;SDS011;64133;56.002;37.208;2024-03-17T16:22:13;14.65;;;3.50;;
75548;SDS011;64133;56.002;37.208;2024-03-17T16:27:18;17.60;;;3.35;;
75548;SDS011;64133;56.002;37.208;2024-03-17T16:32:23;18.12;;;3.95;;
75548;SDS011;64133;56.002;37.208;2024-03-17T16:37:28;13.50;;;4.10;;
75548;SDS011;64133;56.002;37.208;2024-03-17T16:42:33;21.40;;;3.40;;
75548;SDS011;64133;56.002;37.208;2024-03-17T16:47:38;31.80;;;5.12;;
75548;SDS011;64133;56.002;37.208;2024-03-17T16:52:43;19.30;;;4.45;;
75548;SDS011;64133;56.002;37.208;2024-03-17T16:57:48;13.38;;;2.87;;
75548;SDS011;64133;56.002;37.208;2024-03-17T17:02:53;17.40;;;3.70;;
75548;SDS011;64133;56.002;37.208;2024-03-17T17:07:58;20.00;;;3.15;;
75548;SDS011;64133;56.002;37.208;2024-03-17T17:13:05;12.93;;;3.20;;
75548;SDS011;64133;56.002;37.208;2024-03-17T17:18:46;15.80;;;3.50;;
75548;SDS011;64133;56.002;37.208;2024-03-17T17:23:16;12.35;;;4.40;;
75548;SDS011;64133;56.002;37.208;2024-03-17T17:28:21;15.15;;;3.65;;
75548;SDS011;64133;56.002;37.208;2024-03-17T17:33:26;23.18;;;4.60;;
75548;SDS011;64133;56.002;37.208;2024-03-17T17:38:31;18.05;;;3.25;;
75548;SDS011;64133;56.002;37.208;2024-03-17T17:43:37;15.60;;;5.12;;
75548;SDS011;64133;56.002;37.208;2024-03-17T17:48:45;13.62;;;3.62;;
75548;SDS011;64133;56.002;37.208;2024-03-17T17:53:50;21.90;;;3.95;;
75548;SDS011;64133;56.002;37.208;2024-03-17T17:58:55;25.02;;;4.20;;
75548;SDS011;64133;56.002;37.208;2024-03-17T18:04:00;18.50;;;3.83;;
75548;SDS011;64133;56.002;37.208;2024-03-17T18:09:05;20.82;;;4.22;;
75548;SDS011;64133;56.002;37.208;2024-03-17T18:14:12;13.80;;;5.00;;
75548;SDS011;64133;56.002;37.208;2024-03-17T18:19:17;16.45;;;4.62;;
75548;SDS011;64133;56.002;37.208;2024-03-17T18:24:22;10.03;;;3.00;;
75548;SDS011;64133;56.002;37.208;2024-03-17T18:29:27;17.75;;;3.30;;
75548;SDS011;64133;56.002;37.208;2024-03-17T18:34:32;20.30;;;4.10;;
75548;SDS011;64133;56.002;37.208;2024-03-17T18:39:37;11.38;;;3.40;;
75548;SDS011;64133;56.002;37.208;2024-03-17T18:44:42;17.02;;;3.20;;
75548;SDS011;64133;56.002;37.208;2024-03-17T18:49:47;13.32;;;4.37;;
75548;SDS011;64133;56.002;37.208;2024-03-17T18:54:54;21.55;;;4.60;;
75548;SDS011;64133;56.002;37.208;2024-03-17T19:00:00;13.25;;;2.90;;
75548;SDS011;64133;56.002;37.208;2024-03-17T19:05:06;20.77;;;3.80;;
75548;SDS011;64133;56.002;37.208;2024-03-17T19:10:13;29.10;;;5.00;;
75548;SDS011;64133;56.002;37.208;2024-03-17T19:15:19;22.32;;;3.75;;
75548;SDS011;64133;56.002;37.208;2024-03-17T19:20:26;21.87;;;4.60;;
75548;SDS011;64133;56.002;37.208;2024-03-17T19:25:29;23.65;;;4.47;;
75548;SDS011;64133;56.002;37.208;2024-03-17T19:30:34;18.98;;;5.92;;
75548;SDS011;64133;56.002;37.208;2024-03-17T19:35:39;17.73;;;3.70;;
75548;SDS011;64133;56.002;37.208;2024-03-17T19:40:51;19.40;;;5.53;;
75548;SDS011;64133;56.002;37.208;2024-03-17T19:45:59;22.50;;;3.70;;
75548;SDS011;64133;56.002;37.208;2024-03-17T19:51:07;12.82;;;3.95;;
75548;SDS011;64133;56.002;37.208;2024-03-17T19:56:12;19.48;;;3.05;;
75548;SDS011;64133;56.002;37.208;2024-03-17T20:01:17;17.27;;;4.17;;
75548;SDS011;64133;56.002;37.208;2024-03-17T20:06:23;27.02;;;5.62;;
75548;SDS011;64133;56.002;37.208;2024-03-17T20:11:27;17.23;;;4.97;;
75548;SDS011;64133;56.002;37.208;2024-03-17T20:16:35;19.82;;;3.62;;
75548;SDS011;64133;56.002;37.208;2024-03-17T20:21:40;16.55;;;3.60;;
75548;SDS011;64133;56.002;37.208;2024-03-17T20:26:45;26.68;;;4.75;;
75548;SDS011;64133;56.002;37.208;2024-03-17T20:31:50;9.38;;;2.65;;
75548;SDS011;64133;56.002;37.208;2024-03-17T20:36:55;20.17;;;3.58;;
75548;SDS011;64133;56.002;37.208;2024-03-17T20:42:02;21.10;;;5.05;;
75548;SDS011;64133;56.002;37.208;2024-03-17T20:47:07;14.03;;;3.77;;
75548;SDS011;64133;56.002;37.208;2024-03-17T20:52:12;10.88;;;5.58;;
75548;SDS011;64133;56.002;37.208;2024-03-17T20:57:17;30.82;;;5.12;;
75548;SDS011;64133;56.002;37.208;2024-03-17T21:02:22;28.73;;;5.35;;
75548;SDS011;64133;56.002;37.208;2024-03-17T21:07:27;26.12;;;4.60;;
75548;SDS011;64133;56.002;37.208;2024-03-17T21:12:32;17.10;;;5.85;;
75548;SDS011;64133;56.002;37.208;2024-03-17T21:17:37;24.85;;;4.72;;
75548;SDS011;64133;56.002;37.208;2024-03-17T21:22:42;22.17;;;4.42;;
75548;SDS011;64133;56.002;37.208;2024-03-17T21:27:47;16.00;;;4.65;;
75548;SDS011;64133;56.002;37.208;2024-03-17T21:32:52;19.90;;;5.08;;
75548;SDS011;64133;56.002;37.208;2024-03-17T21:37:57;15.32;;;5.65;;
75548;SDS011;64133;56.002;37.208;2024-03-17T21:43:02;14.00;;;4.03;;
75548;SDS011;64133;56.002;37.208;2024-03-17T21:48:07;6.05;;;3.50;;
75548;SDS011;64133;56.002;37.208;2024-03-17T21:53:12;23.67;;;4.95;;
75548;SDS011;64133;56.002;37.208;2024-03-17T21:58:17;13.95;;;5.28;;
75548;SDS011;64133;56.002;37.208;2024-03-17T22:03:22;18.12;;;4.08;;
75548;SDS011;64133;56.002;37.208;2024-03-17T22:08:27;11.83;;;4.45;;
75548;SDS011;64133;56.002;37.208;2024-03-17T22:13:32;12.33;;;3.58;;
75548;SDS011;64133;56.002;37.208;2024-03-17T22:18:37;13.75;;;5.20;;
75548;SDS011;64133;56.002;37.208;2024-03-17T22:23:42;28.80;;;5.22;;
75548;SDS011;64133;56.002;37.208;2024-03-17T22:28:47;27.32;;;5.80;;
75548;SDS011;64133;56.002;37.208;2024-03-17T22:33:52;16.90;;;5.10;;
75548;SDS011;64133;56.002;37.208;2024-03-17T22:38:57;27.98;;;5.37;;
75548;SDS011;64133;56.002;37.208;2024-03-17T22:44:02;19.37;;;4.55;;
75548;SDS011;64133;56.002;37.208;2024-03-17T22:49:07;22.30;;;6.70;;
75548;SDS011;64133;56.002;37.208;2024-03-17T22:54:12;22.77;;;4.40;;
75548;SDS011;64133;56.002;37.208;2024-03-17T22:59:17;31.17;;;5.72;;
75548;SDS011;64133;56.002;37.208;2024-03-17T23:04:22;16.00;;;3.62;;
75548;SDS011;64133;56.002;37.208;2024-03-17T23:09:27;18.87;;;3.60;;
75548;SDS011;64133;56.002;37.208;2024-03-17T23:14:32;27.25;;;6.80;;
75548;SDS011;64133;56.002;37.208;2024-03-17T23:19:37;22.73;;;5.53;;
75548;SDS011;64133;56.002;37.208;2024-03-17T23:24:42;17.37;;;3.87;;
75548;SDS011;64133;56.002;37.208;2024-03-17T23:29:47;13.93;;;4.55;;
75548;SDS011;64133;56.002;37.208;2024-03-17T23:34:52;9.40;;;4.33;;
75548;SDS011;64133;56.002;37.208;2024-03-17T23:39:57;12.50;;;6.08;;
75548;SDS011;64133;56.002;37.208;2024-03-17T23:45:03;18.27;;;5.25;;
75548;SDS011;64133;56.002;37.208;2024-03-17T23:50:09;40.80;;;5.10;;
75548;SDS011;64133;56.002;37.208;2024-03-17T23:55:14;11.75;;;4.65;;
